sensor_id;sensor_type;location;lat;lon;timestamp;P1;durP1;ratioP1;P2;durP2;ratioP2
71767;SDS011;59604;52.138;5.446;2023-03-21T00:00:32;4.00;;;1.80;;
71767;SDS011;59604;52.138;5.446;2023-03-21T00:02:59;3.60;;;1.55;;
71767;SDS011;59604;52.138;5.446;2023-03-21T00:05:26;4.00;;;1.70;;
71767;SDS011;59604;52.138;5.446;2023-03-21T00:07:53;3.63;;;1.42;;
71767;SDS011;59604;52.138;5.446;2023-03-21T00:10:20;3.58;;;1.40;;
71767;SDS011;59604;52.138;5.446;2023-03-21T00:13:04;4.10;;;1.90;;
71767;SDS011;59604;52.138;5.446;2023-03-21T00:15:31;4.47;;;1.75;;
71767;SDS011;59604;52.138;5.446;2023-03-21T00:18:11;4.00;;;1.73;;
71767;SDS011;59604;52.138;5.446;2023-03-21T00:20:37;4.88;;;2.00;;
71767;SDS011;59604;52.138;5.446;2023-03-21T00:23:04;3.97;;;1.63;;
71767;SDS011;59604;52.138;5.446;2023-03-21T00:25:30;4.22;;;1.60;;
71767;SDS011;59604;52.138;5.446;2023-03-21T00:27:58;4.13;;;2.00;;
71767;SDS011;59604;52.138;5.446;2023-03-21T00:30:33;3.90;;;1.42;;
71767;SDS011;59604;52.138;5.446;2023-03-21T00:33:00;3.63;;;1.50;;
71767;SDS011;59604;52.138;5.446;2023-03-21T00:35:37;4.15;;;1.73;;
71767;SDS011;59604;52.138;5.446;2023-03-21T00:38:24;4.15;;;1.80;;
71767;SDS011;59604;52.138;5.446;2023-03-21T00:40:51;4.55;;;1.90;;
71767;SDS011;59604;52.138;5.446;2023-03-21T00:43:18;3.78;;;1.85;;
71767;SDS011;59604;52.138;5.446;2023-03-21T00:45:48;3.95;;;1.63;;
71767;SDS011;59604;52.138;5.446;2023-03-21T00:50:44;4.47;;;1.60;;
71767;SDS011;59604;52.138;5.446;2023-03-21T00:53:12;4.18;;;1.63;;
71767;SDS011;59604;52.138;5.446;2023-03-21T00:55:39;4.40;;;2.08;;
71767;SDS011;59604;52.138;5.446;2023-03-21T00:58:06;3.60;;;1.50;;
71767;SDS011;59604;52.138;5.446;2023-03-21T01:00:33;3.50;;;1.52;;
71767;SDS011;59604;52.138;5.446;2023-03-21T01:03:03;3.50;;;1.60;;
71767;SDS011;59604;52.138;5.446;2023-03-21T01:05:49;4.43;;;1.60;;
71767;SDS011;59604;52.138;5.446;2023-03-21T01:08:33;3.80;;;1.60;;
71767;SDS011;59604;52.138;5.446;2023-03-21T01:11:18;3.88;;;1.55;;
71767;SDS011;59604;52.138;5.446;2023-03-21T01:13:46;4.32;;;1.50;;
71767;SDS011;59604;52.138;5.446;2023-03-21T01:16:23;3.92;;;1.60;;
71767;SDS011;59604;52.138;5.446;2023-03-21T01:18:50;4.15;;;1.70;;
71767;SDS011;59604;52.138;5.446;2023-03-21T01:21:17;4.05;;;1.85;;
71767;SDS011;59604;52.138;5.446;2023-03-21T01:23:43;3.60;;;1.60;;
71767;SDS011;59604;52.138;5.446;2023-03-21T01:26:11;3.75;;;1.60;;
71767;SDS011;59604;52.138;5.446;2023-03-21T01:28:39;5.93;;;1.88;;
71767;SDS011;59604;52.138;5.446;2023-03-21T01:31:07;4.85;;;2.22;;
71767;SDS011;59604;52.138;5.446;2023-03-21T01:33:34;4.00;;;1.60;;
71767;SDS011;59604;52.138;5.446;2023-03-21T01:36:01;4.28;;;1.77;;
71767;SDS011;59604;52.138;5.446;2023-03-21T01:38:39;4.38;;;2.00;;
71767;SDS011;59604;52.138;5.446;2023-03-21T01:41:06;3.80;;;1.60;;
71767;SDS011;59604;52.138;5.446;2023-03-21T01:43:45;3.95;;;1.85;;
71767;SDS011;59604;52.138;5.446;2023-03-21T01:46:33;3.85;;;1.73;;
71767;SDS011;59604;52.138;5.446;2023-03-21T01:52:05;3.85;;;1.60;;
71767;SDS011;59604;52.138;5.446;2023-03-21T01:54:40;4.05;;;1.83;;
71767;SDS011;59604;52.138;5.446;2023-03-21T01:57:10;4.18;;;1.92;;
71767;SDS011;59604;52.138;5.446;2023-03-21T01:59:42;4.30;;;1.90;;
71767;SDS011;59604;52.138;5.446;2023-03-21T02:02:12;3.92;;;1.75;;
71767;SDS011;59604;52.138;5.446;2023-03-21T02:07:17;4.00;;;1.73;;
71767;SDS011;59604;52.138;5.446;2023-03-21T02:09:50;4.20;;;2.13;;
71767;SDS011;59604;52.138;5.446;2023-03-21T02:12:18;4.70;;;2.17;;
71767;SDS011;59604;52.138;5.446;2023-03-21T02:14:46;4.18;;;1.95;;
71767;SDS011;59604;52.138;5.446;2023-03-21T02:17:35;4.65;;;2.10;;
71767;SDS011;59604;52.138;5.446;2023-03-21T02:28:34;4.90;;;2.08;;
71767;SDS011;59604;52.138;5.446;2023-03-21T02:37:21;5.25;;;2.10;;
71767;SDS011;59604;52.138;5.446;2023-03-21T02:42:58;6.05;;;2.78;;
71767;SDS011;59604;52.138;5.446;2023-03-21T02:45:49;5.22;;;2.13;;
71767;SDS011;59604;52.138;5.446;2023-03-21T02:48:33;4.80;;;2.33;;
71767;SDS011;59604;52.138;5.446;2023-03-21T02:51:16;4.38;;;2.03;;
71767;SDS011;59604;52.138;5.446;2023-03-21T02:53:48;5.28;;;2.20;;
71767;SDS011;59604;52.138;5.446;2023-03-21T02:56:39;5.95;;;2.50;;
71767;SDS011;59604;52.138;5.446;2023-03-21T02:59:08;5.22;;;2.47;;
71767;SDS011;59604;52.138;5.446;2023-03-21T03:01:35;6.20;;;2.67;;
71767;SDS011;59604;52.138;5.446;2023-03-21T03:04:02;5.03;;;2.35;;
71767;SDS011;59604;52.138;5.446;2023-03-21T03:06:31;5.35;;;2.60;;
71767;SDS011;59604;52.138;5.446;2023-03-21T03:11:49;4.75;;;2.40;;
71767;SDS011;59604;52.138;5.446;2023-03-21T03:14:33;5.25;;;2.35;;
71767;SDS011;59604;52.138;5.446;2023-03-21T03:20:28;5.55;;;2.63;;
71767;SDS011;59604;52.138;5.446;2023-03-21T03:26:19;5.35;;;2.53;;
71767;SDS011;59604;52.138;5.446;2023-03-21T03:28:52;5.65;;;2.30;;
71767;SDS011;59604;52.138;5.446;2023-03-21T03:31:24;5.65;;;2.47;;
71767;SDS011;59604;52.138;5.446;2023-03-21T03:33:56;4.53;;;2.22;;
71767;SDS011;59604;52.138;5.446;2023-03-21T03:36:30;5.22;;;2.45;;
71767;SDS011;59604;52.138;5.446;2023-03-21T03:39:02;5.38;;;2.47;;
71767;SDS011;59604;52.138;5.446;2023-03-21T03:41:32;5.80;;;2.70;;
71767;SDS011;59604;52.138;5.446;2023-03-21T03:44:25;6.00;;;2.20;;
71767;SDS011;59604;52.138;5.446;2023-03-21T03:47:00;5.85;;;2.75;;
71767;SDS011;59604;52.138;5.446;2023-03-21T03:49:33;5.55;;;2.63;;
71767;SDS011;59604;52.138;5.446;2023-03-21T03:52:06;5.63;;;2.20;;
71767;SDS011;59604;52.138;5.446;2023-03-21T03:54:42;5.07;;;2.38;;
71767;SDS011;59604;52.138;5.446;2023-03-21T03:57:11;5.57;;;2.70;;
71767;SDS011;59604;52.138;5.446;2023-03-21T03:59:41;4.28;;;2.13;;
71767;SDS011;59604;52.138;5.446;2023-03-21T04:02:09;6.78;;;2.65;;
71767;SDS011;59604;52.138;5.446;2023-03-21T04:04:36;5.85;;;2.60;;
71767;SDS011;59604;52.138;5.446;2023-03-21T04:07:03;6.45;;;2.67;;
71767;SDS011;59604;52.138;5.446;2023-03-21T04:09:31;5.53;;;2.40;;
71767;SDS011;59604;52.138;5.446;2023-03-21T04:12:09;5.35;;;2.20;;
71767;SDS011;59604;52.138;5.446;2023-03-21T04:14:37;5.03;;;2.22;;
71767;SDS011;59604;52.138;5.446;2023-03-21T04:22:05;5.78;;;2.47;;
71767;SDS011;59604;52.138;5.446;2023-03-21T04:24:32;6.28;;;2.50;;
71767;SDS011;59604;52.138;5.446;2023-03-21T04:26:59;5.10;;;2.33;;
71767;SDS011;59604;52.138;5.446;2023-03-21T04:29:26;6.85;;;2.70;;
71767;SDS011;59604;52.138;5.446;2023-03-21T04:31:54;6.05;;;2.67;;
71767;SDS011;59604;52.138;5.446;2023-03-21T04:34:21;6.32;;;3.08;;
71767;SDS011;59604;52.138;5.446;2023-03-21T04:36:49;5.32;;;2.45;;
71767;SDS011;59604;52.138;5.446;2023-03-21T04:39:19;5.32;;;2.50;;
71767;SDS011;59604;52.138;5.446;2023-03-21T04:41:46;5.30;;;2.58;;
71767;SDS011;59604;52.138;5.446;2023-03-21T04:44:14;5.05;;;2.30;;
71767;SDS011;59604;52.138;5.446;2023-03-21T04:46:41;5.13;;;2.25;;
71767;SDS011;59604;52.138;5.446;2023-03-21T04:49:08;5.68;;;2.28;;
71767;SDS011;59604;52.138;5.446;2023-03-21T04:51:35;5.35;;;2.30;;
71767;SDS011;59604;52.138;5.446;2023-03-21T04:54:02;5.55;;;2.50;;
71767;SDS011;59604;52.138;5.446;2023-03-21T04:56:29;6.80;;;2.55;;
71767;SDS011;59604;52.138;5.446;2023-03-21T04:58:58;4.60;;;2.40;;
71767;SDS011;59604;52.138;5.446;2023-03-21T05:03:59;4.80;;;2.42;;
71767;SDS011;59604;52.138;5.446;2023-03-21T05:06:26;5.28;;;2.30;;
71767;SDS011;59604;52.138;5.446;2023-03-21T05:08:53;6.30;;;2.58;;
71767;SDS011;59604;52.138;5.446;2023-03-21T05:11:30;5.63;;;2.55;;
71767;SDS011;59604;52.138;5.446;2023-03-21T05:16:25;5.43;;;2.40;;
71767;SDS011;59604;52.138;5.446;2023-03-21T05:18:59;4.97;;;2.25;;
71767;SDS011;59604;52.138;5.446;2023-03-21T05:21:30;5.13;;;2.15;;
71767;SDS011;59604;52.138;5.446;2023-03-21T05:24:06;5.10;;;2.67;;
71767;SDS011;59604;52.138;5.446;2023-03-21T05:26:40;4.63;;;2.42;;
71767;SDS011;59604;52.138;5.446;2023-03-21T05:29:08;6.65;;;2.25;;
71767;SDS011;59604;52.138;5.446;2023-03-21T05:31:36;5.63;;;2.45;;
71767;SDS011;59604;52.138;5.446;2023-03-21T05:34:02;4.63;;;2.35;;
71767;SDS011;59604;52.138;5.446;2023-03-21T05:36:29;5.13;;;2.40;;
71767;SDS011;59604;52.138;5.446;2023-03-21T05:38:59;6.45;;;2.40;;
71767;SDS011;59604;52.138;5.446;2023-03-21T05:41:27;4.55;;;2.10;;
71767;SDS011;59604;52.138;5.446;2023-03-21T05:43:53;5.05;;;2.15;;
71767;SDS011;59604;52.138;5.446;2023-03-21T05:46:20;5.60;;;2.30;;
71767;SDS011;59604;52.138;5.446;2023-03-21T05:48:46;5.75;;;2.45;;
71767;SDS011;59604;52.138;5.446;2023-03-21T05:51:13;5.32;;;2.30;;
71767;SDS011;59604;52.138;5.446;2023-03-21T05:53:40;5.30;;;2.50;;
71767;SDS011;59604;52.138;5.446;2023-03-21T05:56:06;6.07;;;2.30;;
71767;SDS011;59604;52.138;5.446;2023-03-21T05:58:33;5.68;;;2.38;;
71767;SDS011;59604;52.138;5.446;2023-03-21T06:01:00;6.35;;;2.10;;
71767;SDS011;59604;52.138;5.446;2023-03-21T06:03:26;5.65;;;2.10;;
71767;SDS011;59604;52.138;5.446;2023-03-21T06:05:53;4.90;;;2.20;;
71767;SDS011;59604;52.138;5.446;2023-03-21T06:08:19;5.22;;;2.00;;
71767;SDS011;59604;52.138;5.446;2023-03-21T06:10:46;6.03;;;2.30;;
71767;SDS011;59604;52.138;5.446;2023-03-21T06:13:12;5.93;;;2.30;;
71767;SDS011;59604;52.138;5.446;2023-03-21T06:15:39;6.30;;;2.50;;
71767;SDS011;59604;52.138;5.446;2023-03-21T06:18:06;6.57;;;2.70;;
71767;SDS011;59604;52.138;5.446;2023-03-21T06:20:32;6.05;;;2.10;;
71767;SDS011;59604;52.138;5.446;2023-03-21T06:22:59;5.20;;;2.20;;
71767;SDS011;59604;52.138;5.446;2023-03-21T06:25:25;5.05;;;2.20;;
71767;SDS011;59604;52.138;5.446;2023-03-21T06:27:52;5.72;;;2.20;;
71767;SDS011;59604;52.138;5.446;2023-03-21T06:30:18;5.43;;;2.00;;
71767;SDS011;59604;52.138;5.446;2023-03-21T06:32:45;5.90;;;2.20;;
71767;SDS011;59604;52.138;5.446;2023-03-21T06:35:12;6.07;;;2.13;;
71767;SDS011;59604;52.138;5.446;2023-03-21T06:37:38;5.75;;;2.25;;
71767;SDS011;59604;52.138;5.446;2023-03-21T06:40:05;6.03;;;2.40;;
71767;SDS011;59604;52.138;5.446;2023-03-21T06:42:34;5.18;;;2.15;;
71767;SDS011;59604;52.138;5.446;2023-03-21T06:45:01;5.57;;;2.33;;
71767;SDS011;59604;52.138;5.446;2023-03-21T06:47:27;6.90;;;2.45;;
71767;SDS011;59604;52.138;5.446;2023-03-21T06:49:53;6.13;;;2.35;;
71767;SDS011;59604;52.138;5.446;2023-03-21T06:52:20;4.82;;;1.90;;
71767;SDS011;59604;52.138;5.446;2023-03-21T06:54:47;6.15;;;2.38;;
71767;SDS011;59604;52.138;5.446;2023-03-21T06:57:13;4.10;;;1.90;;
71767;SDS011;59604;52.138;5.446;2023-03-21T06:59:40;5.68;;;2.10;;
71767;SDS011;59604;52.138;5.446;2023-03-21T07:02:08;5.20;;;1.90;;
71767;SDS011;59604;52.138;5.446;2023-03-21T07:04:36;5.22;;;1.90;;
71767;SDS011;59604;52.138;5.446;2023-03-21T07:07:03;5.22;;;2.05;;
71767;SDS011;59604;52.138;5.446;2023-03-21T07:09:29;4.97;;;1.90;;
71767;SDS011;59604;52.138;5.446;2023-03-21T07:11:56;7.38;;;1.90;;
71767;SDS011;59604;52.138;5.446;2023-03-21T07:14:23;6.60;;;1.70;;
71767;SDS011;59604;52.138;5.446;2023-03-21T07:16:49;4.60;;;1.70;;
71767;SDS011;59604;52.138;5.446;2023-03-21T07:19:16;5.45;;;2.05;;
71767;SDS011;59604;52.138;5.446;2023-03-21T07:21:42;4.78;;;1.83;;
71767;SDS011;59604;52.138;5.446;2023-03-21T07:24:09;5.75;;;1.80;;
71767;SDS011;59604;52.138;5.446;2023-03-21T07:26:35;5.22;;;1.77;;
71767;SDS011;59604;52.138;5.446;2023-03-21T07:29:02;4.70;;;1.60;;
71767;SDS011;59604;52.138;5.446;2023-03-21T07:31:28;4.50;;;1.55;;
71767;SDS011;59604;52.138;5.446;2023-03-21T07:33:55;5.93;;;1.75;;
71767;SDS011;59604;52.138;5.446;2023-03-21T07:36:21;5.32;;;1.67;;
71767;SDS011;59604;52.138;5.446;2023-03-21T07:38:48;4.50;;;1.63;;
71767;SDS011;59604;52.138;5.446;2023-03-21T07:41:15;4.50;;;1.65;;
71767;SDS011;59604;52.138;5.446;2023-03-21T07:43:46;5.43;;;1.92;;
71767;SDS011;59604;52.138;5.446;2023-03-21T07:46:13;4.90;;;1.60;;
71767;SDS011;59604;52.138;5.446;2023-03-21T07:48:39;5.75;;;1.80;;
71767;SDS011;59604;52.138;5.446;2023-03-21T07:51:06;6.35;;;2.10;;
71767;SDS011;59604;52.138;5.446;2023-03-21T07:53:32;6.20;;;2.10;;
71767;SDS011;59604;52.138;5.446;2023-03-21T07:55:59;6.18;;;2.10;;
71767;SDS011;59604;52.138;5.446;2023-03-21T07:58:25;5.75;;;1.83;;
71767;SDS011;59604;52.138;5.446;2023-03-21T08:03:21;6.10;;;2.38;;
71767;SDS011;59604;52.138;5.446;2023-03-21T08:05:49;6.03;;;1.83;;
71767;SDS011;59604;52.138;5.446;2023-03-21T08:08:15;5.65;;;1.92;;
71767;SDS011;59604;52.138;5.446;2023-03-21T08:10:42;6.20;;;2.10;;
71767;SDS011;59604;52.138;5.446;2023-03-21T08:13:09;5.25;;;2.00;;
71767;SDS011;59604;52.138;5.446;2023-03-21T08:15:36;5.20;;;1.88;;
71767;SDS011;59604;52.138;5.446;2023-03-21T08:18:03;5.57;;;1.92;;
71767;SDS011;59604;52.138;5.446;2023-03-21T08:20:30;5.65;;;1.98;;
71767;SDS011;59604;52.138;5.446;2023-03-21T08:22:56;5.85;;;2.08;;
71767;SDS011;59604;52.138;5.446;2023-03-21T08:25:22;5.70;;;1.98;;
71767;SDS011;59604;52.138;5.446;2023-03-21T08:27:49;5.55;;;2.00;;
71767;SDS011;59604;52.138;5.446;2023-03-21T08:30:17;5.47;;;2.20;;
71767;SDS011;59604;52.138;5.446;2023-03-21T08:32:45;6.82;;;2.25;;
71767;SDS011;59604;52.138;5.446;2023-03-21T08:35:13;6.40;;;2.28;;
71767;SDS011;59604;52.138;5.446;2023-03-21T08:37:41;8.25;;;2.42;;
71767;SDS011;59604;52.138;5.446;2023-03-21T08:40:09;6.05;;;2.38;;
71767;SDS011;59604;52.138;5.446;2023-03-21T08:42:41;5.82;;;1.98;;
71767;SDS011;59604;52.138;5.446;2023-03-21T08:47:36;8.00;;;2.20;;
71767;SDS011;59604;52.138;5.446;2023-03-21T08:50:03;7.97;;;2.45;;
71767;SDS011;59604;52.138;5.446;2023-03-21T08:52:32;5.68;;;2.38;;
71767;SDS011;59604;52.138;5.446;2023-03-21T08:54:59;8.50;;;2.40;;
71767;SDS011;59604;52.138;5.446;2023-03-21T08:57:27;6.55;;;2.50;;
71767;SDS011;59604;52.138;5.446;2023-03-21T08:59:54;6.45;;;2.50;;
71767;SDS011;59604;52.138;5.446;2023-03-21T09:02:20;6.68;;;2.25;;
71767;SDS011;59604;52.138;5.446;2023-03-21T09:04:47;8.38;;;2.92;;
71767;SDS011;59604;52.138;5.446;2023-03-21T09:07:14;6.22;;;2.80;;
71767;SDS011;59604;52.138;5.446;2023-03-21T09:09:43;6.80;;;2.85;;
71767;SDS011;59604;52.138;5.446;2023-03-21T09:12:12;8.90;;;3.17;;
71767;SDS011;59604;52.138;5.446;2023-03-21T09:14:39;10.77;;;3.42;;
71767;SDS011;59604;52.138;5.446;2023-03-21T09:17:06;7.78;;;3.15;;
71767;SDS011;59604;52.138;5.446;2023-03-21T09:19:32;12.63;;;3.72;;
71767;SDS011;59604;52.138;5.446;2023-03-21T09:22:00;8.57;;;3.08;;
71767;SDS011;59604;52.138;5.446;2023-03-21T09:24:26;9.05;;;2.95;;
71767;SDS011;59604;52.138;5.446;2023-03-21T09:26:53;6.57;;;2.75;;
71767;SDS011;59604;52.138;5.446;2023-03-21T09:29:20;6.28;;;2.67;;
71767;SDS011;59604;52.138;5.446;2023-03-21T09:31:46;6.63;;;2.45;;
71767;SDS011;59604;52.138;5.446;2023-03-21T09:34:13;9.68;;;2.80;;
71767;SDS011;59604;52.138;5.446;2023-03-21T09:36:41;6.43;;;2.38;;
71767;SDS011;59604;52.138;5.446;2023-03-21T09:39:09;7.30;;;2.20;;
71767;SDS011;59604;52.138;5.446;2023-03-21T09:44:17;7.05;;;2.38;;
71767;SDS011;59604;52.138;5.446;2023-03-21T09:46:46;5.55;;;2.33;;
71767;SDS011;59604;52.138;5.446;2023-03-21T09:49:18;5.47;;;1.80;;
71767;SDS011;59604;52.138;5.446;2023-03-21T09:51:51;7.82;;;2.10;;
71767;SDS011;59604;52.138;5.446;2023-03-21T09:54:25;5.43;;;1.80;;
71767;SDS011;59604;52.138;5.446;2023-03-21T09:57:00;7.18;;;2.15;;
71767;SDS011;59604;52.138;5.446;2023-03-21T09:59:37;4.80;;;1.75;;
71767;SDS011;59604;52.138;5.446;2023-03-21T10:05:10;5.75;;;1.92;;
71767;SDS011;59604;52.138;5.446;2023-03-21T10:07:42;5.75;;;2.08;;
71767;SDS011;59604;52.138;5.446;2023-03-21T10:10:15;5.32;;;1.85;;
71767;SDS011;59604;52.138;5.446;2023-03-21T10:12:45;6.35;;;1.95;;
71767;SDS011;59604;52.138;5.446;2023-03-21T10:15:15;5.97;;;2.00;;
71767;SDS011;59604;52.138;5.446;2023-03-21T10:17:46;6.72;;;2.22;;
71767;SDS011;59604;52.138;5.446;2023-03-21T10:22:43;6.13;;;2.40;;
71767;SDS011;59604;52.138;5.446;2023-03-21T10:25:14;5.22;;;2.13;;
71767;SDS011;59604;52.138;5.446;2023-03-21T10:27:44;6.75;;;2.40;;
71767;SDS011;59604;52.138;5.446;2023-03-21T10:32:45;5.47;;;2.15;;
71767;SDS011;59604;52.138;5.446;2023-03-21T10:35:12;6.55;;;2.30;;
71767;SDS011;59604;52.138;5.446;2023-03-21T10:37:39;6.00;;;2.40;;
71767;SDS011;59604;52.138;5.446;2023-03-21T10:40:06;6.50;;;2.35;;
71767;SDS011;59604;52.138;5.446;2023-03-21T10:42:40;6.07;;;2.05;;
71767;SDS011;59604;52.138;5.446;2023-03-21T10:45:15;8.40;;;2.45;;
71767;SDS011;59604;52.138;5.446;2023-03-21T10:47:46;5.53;;;2.05;;
71767;SDS011;59604;52.138;5.446;2023-03-21T10:50:15;6.85;;;2.10;;
71767;SDS011;59604;52.138;5.446;2023-03-21T10:52:46;4.80;;;2.03;;
71767;SDS011;59604;52.138;5.446;2023-03-21T10:55:17;6.05;;;2.40;;
71767;SDS011;59604;52.138;5.446;2023-03-21T10:58:24;5.70;;;2.20;;
71767;SDS011;59604;52.138;5.446;2023-03-21T11:00:52;7.63;;;2.40;;
71767;SDS011;59604;52.138;5.446;2023-03-21T11:03:30;5.80;;;2.15;;
71767;SDS011;59604;52.138;5.446;2023-03-21T11:06:06;7.80;;;2.20;;
71767;SDS011;59604;52.138;5.446;2023-03-21T11:08:38;6.85;;;2.30;;
71767;SDS011;59604;52.138;5.446;2023-03-21T11:11:26;5.68;;;2.00;;
71767;SDS011;59604;52.138;5.446;2023-03-21T11:13:59;6.65;;;2.30;;
71767;SDS011;59604;52.138;5.446;2023-03-21T11:16:39;6.03;;;2.30;;
71767;SDS011;59604;52.138;5.446;2023-03-21T11:19:12;5.05;;;1.85;;
71767;SDS011;59604;52.138;5.446;2023-03-21T11:21:40;6.05;;;2.00;;
71767;SDS011;59604;52.138;5.446;2023-03-21T11:24:15;6.65;;;2.00;;
71767;SDS011;59604;52.138;5.446;2023-03-21T11:26:44;5.88;;;2.10;;
71767;SDS011;59604;52.138;5.446;2023-03-21T11:31:44;6.03;;;1.92;;
71767;SDS011;59604;52.138;5.446;2023-03-21T11:34:23;4.72;;;1.90;;
71767;SDS011;59604;52.138;5.446;2023-03-21T11:36:57;5.65;;;1.80;;
71767;SDS011;59604;52.138;5.446;2023-03-21T11:39:32;5.97;;;2.00;;
71767;SDS011;59604;52.138;5.446;2023-03-21T11:42:02;5.75;;;1.90;;
71767;SDS011;59604;52.138;5.446;2023-03-21T11:44:33;5.55;;;1.88;;
71767;SDS011;59604;52.138;5.446;2023-03-21T11:47:07;7.25;;;1.95;;
71767;SDS011;59604;52.138;5.446;2023-03-21T11:49:36;5.13;;;2.00;;
71767;SDS011;59604;52.138;5.446;2023-03-21T11:52:09;5.68;;;1.80;;
71767;SDS011;59604;52.138;5.446;2023-03-21T11:55:52;5.35;;;1.65;;
71767;SDS011;59604;52.138;5.446;2023-03-21T11:57:48;5.80;;;1.80;;
71767;SDS011;59604;52.138;5.446;2023-03-21T12:00:42;6.32;;;1.70;;
71767;SDS011;59604;52.138;5.446;2023-03-21T12:06:26;5.20;;;2.10;;
71767;SDS011;59604;52.138;5.446;2023-03-21T12:14:02;5.28;;;2.10;;
71767;SDS011;59604;52.138;5.446;2023-03-21T12:22:17;5.43;;;1.95;;
71767;SDS011;59604;52.138;5.446;2023-03-21T12:25:03;4.30;;;1.73;;
71767;SDS011;59604;52.138;5.446;2023-03-21T12:30:31;5.70;;;1.83;;
71767;SDS011;59604;52.138;5.446;2023-03-21T12:43:47;12.52;;;3.42;;
71767;SDS011;59604;52.138;5.446;2023-03-21T12:52:04;11.30;;;3.70;;
71767;SDS011;59604;52.138;5.446;2023-03-21T12:54:49;11.35;;;3.88;;
71767;SDS011;59604;52.138;5.446;2023-03-21T12:57:21;8.43;;;3.33;;
71767;SDS011;59604;52.138;5.446;2023-03-21T13:02:56;8.63;;;3.65;;
71767;SDS011;59604;52.138;5.446;2023-03-21T13:05:29;9.75;;;3.63;;
71767;SDS011;59604;52.138;5.446;2023-03-21T13:08:00;9.48;;;3.63;;
71767;SDS011;59604;52.138;5.446;2023-03-21T13:10:32;10.35;;;3.83;;
71767;SDS011;59604;52.138;5.446;2023-03-21T13:15:47;8.10;;;3.80;;
71767;SDS011;59604;52.138;5.446;2023-03-21T13:29:33;9.57;;;4.60;;
71767;SDS011;59604;52.138;5.446;2023-03-21T13:32:09;7.50;;;3.92;;
71767;SDS011;59604;52.138;5.446;2023-03-21T13:34:44;7.80;;;4.00;;
71767;SDS011;59604;52.138;5.446;2023-03-21T13:39:45;8.00;;;4.20;;
71767;SDS011;59604;52.138;5.446;2023-03-21T13:42:21;8.35;;;4.25;;
71767;SDS011;59604;52.138;5.446;2023-03-21T13:44:55;9.50;;;4.65;;
71767;SDS011;59604;52.138;5.446;2023-03-21T13:51:37;9.75;;;4.30;;
71767;SDS011;59604;52.138;5.446;2023-03-21T13:53:35;11.20;;;4.50;;
71767;SDS011;59604;52.138;5.446;2023-03-21T14:01:25;8.13;;;4.57;;
71767;SDS011;59604;52.138;5.446;2023-03-21T14:04:11;9.07;;;4.53;;
71767;SDS011;59604;52.138;5.446;2023-03-21T14:06:42;8.65;;;4.43;;
71767;SDS011;59604;52.138;5.446;2023-03-21T14:09:16;9.88;;;4.70;;
71767;SDS011;59604;52.138;5.446;2023-03-21T14:11:48;8.70;;;4.57;;
71767;SDS011;59604;52.138;5.446;2023-03-21T14:14:22;11.88;;;4.00;;
71767;SDS011;59604;52.138;5.446;2023-03-21T14:16:52;8.30;;;4.15;;
71767;SDS011;59604;52.138;5.446;2023-03-21T14:19:19;8.50;;;4.50;;
71767;SDS011;59604;52.138;5.446;2023-03-21T14:21:47;8.57;;;4.60;;
71767;SDS011;59604;52.138;5.446;2023-03-21T14:24:17;8.02;;;4.22;;
71767;SDS011;59604;52.138;5.446;2023-03-21T14:29:16;7.72;;;4.55;;
71767;SDS011;59604;52.138;5.446;2023-03-21T14:31:52;10.45;;;4.70;;
71767;SDS011;59604;52.138;5.446;2023-03-21T14:34:21;9.45;;;4.53;;
71767;SDS011;59604;52.138;5.446;2023-03-21T14:36:49;8.32;;;4.80;;
71767;SDS011;59604;52.138;5.446;2023-03-21T14:39:31;10.27;;;4.97;;
71767;SDS011;59604;52.138;5.446;2023-03-21T14:44:39;8.30;;;4.28;;
71767;SDS011;59604;52.138;5.446;2023-03-21T14:47:21;10.73;;;4.88;;
71767;SDS011;59604;52.138;5.446;2023-03-21T14:49:50;8.00;;;4.40;;
71767;SDS011;59604;52.138;5.446;2023-03-21T14:52:28;8.57;;;4.50;;
71767;SDS011;59604;52.138;5.446;2023-03-21T14:54:57;8.32;;;4.43;;
71767;SDS011;59604;52.138;5.446;2023-03-21T14:57:28;8.40;;;4.28;;
71767;SDS011;59604;52.138;5.446;2023-03-21T14:59:58;10.10;;;4.63;;
71767;SDS011;59604;52.138;5.446;2023-03-21T15:02:29;8.95;;;4.80;;
71767;SDS011;59604;52.138;5.446;2023-03-21T15:05:09;9.27;;;4.60;;
71767;SDS011;59604;52.138;5.446;2023-03-21T15:07:55;7.80;;;4.05;;
71767;SDS011;59604;52.138;5.446;2023-03-21T15:10:40;10.15;;;4.35;;
71767;SDS011;59604;52.138;5.446;2023-03-21T15:13:14;8.80;;;4.40;;
71767;SDS011;59604;52.138;5.446;2023-03-21T15:15:43;8.57;;;4.55;;
71767;SDS011;59604;52.138;5.446;2023-03-21T15:18:12;9.43;;;4.70;;
71767;SDS011;59604;52.138;5.446;2023-03-21T15:20:43;10.90;;;5.03;;
71767;SDS011;59604;52.138;5.446;2023-03-21T15:23:13;8.88;;;4.57;;
71767;SDS011;59604;52.138;5.446;2023-03-21T15:25:49;8.77;;;4.53;;
71767;SDS011;59604;52.138;5.446;2023-03-21T15:28:16;7.90;;;4.57;;
71767;SDS011;59604;52.138;5.446;2023-03-21T15:30:48;9.40;;;4.60;;
71767;SDS011;59604;52.138;5.446;2023-03-21T15:33:16;9.48;;;4.75;;
71767;SDS011;59604;52.138;5.446;2023-03-21T15:35:44;10.50;;;4.55;;
71767;SDS011;59604;52.138;5.446;2023-03-21T15:38:23;10.63;;;4.65;;
71767;SDS011;59604;52.138;5.446;2023-03-21T15:41:22;10.13;;;4.82;;
71767;SDS011;59604;52.138;5.446;2023-03-21T15:43:53;9.60;;;4.97;;
71767;SDS011;59604;52.138;5.446;2023-03-21T15:49:08;7.57;;;4.55;;
71767;SDS011;59604;52.138;5.446;2023-03-21T15:51:47;8.85;;;4.95;;
71767;SDS011;59604;52.138;5.446;2023-03-21T15:54:20;10.30;;;5.15;;
71767;SDS011;59604;52.138;5.446;2023-03-21T15:56:57;10.18;;;5.07;;
71767;SDS011;59604;52.138;5.446;2023-03-21T15:59:30;10.40;;;4.88;;
71767;SDS011;59604;52.138;5.446;2023-03-21T16:02:00;9.38;;;4.60;;
71767;SDS011;59604;52.138;5.446;2023-03-21T16:07:03;8.63;;;4.72;;
71767;SDS011;59604;52.138;5.446;2023-03-21T16:09:42;8.38;;;4.43;;
71767;SDS011;59604;52.138;5.446;2023-03-21T16:12:13;8.90;;;4.50;;
71767;SDS011;59604;52.138;5.446;2023-03-21T16:14:44;10.73;;;4.78;;
71767;SDS011;59604;52.138;5.446;2023-03-21T16:17:24;8.98;;;4.50;;
71767;SDS011;59604;52.138;5.446;2023-03-21T16:19:59;9.10;;;5.15;;
71767;SDS011;59604;52.138;5.446;2023-03-21T16:22:29;9.65;;;5.07;;
71767;SDS011;59604;52.138;5.446;2023-03-21T16:27:26;9.02;;;5.80;;
71767;SDS011;59604;52.138;5.446;2023-03-21T16:29:52;9.07;;;5.18;;
71767;SDS011;59604;52.138;5.446;2023-03-21T16:32:19;11.77;;;5.35;;
71767;SDS011;59604;52.138;5.446;2023-03-21T16:34:45;9.55;;;5.25;;
71767;SDS011;59604;52.138;5.446;2023-03-21T16:37:12;9.98;;;5.10;;
71767;SDS011;59604;52.138;5.446;2023-03-21T16:39:42;11.63;;;4.95;;
71767;SDS011;59604;52.138;5.446;2023-03-21T16:42:11;8.93;;;4.95;;
71767;SDS011;59604;52.138;5.446;2023-03-21T16:44:38;9.68;;;5.20;;
71767;SDS011;59604;52.138;5.446;2023-03-21T16:47:12;9.70;;;4.47;;
71767;SDS011;59604;52.138;5.446;2023-03-21T16:49:40;8.30;;;4.55;;
71767;SDS011;59604;52.138;5.446;2023-03-21T16:52:08;8.05;;;4.63;;
71767;SDS011;59604;52.138;5.446;2023-03-21T16:54:39;9.68;;;5.05;;
71767;SDS011;59604;52.138;5.446;2023-03-21T16:57:13;8.60;;;5.03;;
71767;SDS011;59604;52.138;5.446;2023-03-21T16:59:52;11.30;;;5.32;;
71767;SDS011;59604;52.138;5.446;2023-03-21T17:02:20;10.45;;;4.95;;
71767;SDS011;59604;52.138;5.446;2023-03-21T17:04:49;9.13;;;4.63;;
71767;SDS011;59604;52.138;5.446;2023-03-21T17:07:15;9.27;;;4.95;;
71767;SDS011;59604;52.138;5.446;2023-03-21T17:09:43;9.60;;;5.18;;
71767;SDS011;59604;52.138;5.446;2023-03-21T17:12:13;9.13;;;4.80;;
71767;SDS011;59604;52.138;5.446;2023-03-21T17:14:41;8.75;;;4.72;;
71767;SDS011;59604;52.138;5.446;2023-03-21T17:17:09;9.20;;;4.35;;
71767;SDS011;59604;52.138;5.446;2023-03-21T17:19:40;9.38;;;4.32;;
71767;SDS011;59604;52.138;5.446;2023-03-21T17:22:07;7.80;;;4.40;;
71767;SDS011;59604;52.138;5.446;2023-03-21T17:24:37;7.35;;;4.03;;
71767;SDS011;59604;52.138;5.446;2023-03-21T17:27:04;7.93;;;4.15;;